createdAt,value
2017-11-26T00:00:17.449Z,97.82
2017-11-26T00:02:44.960Z,97.90
2017-11-26T00:05:12.473Z,97.60
2017-11-26T00:07:40.054Z,97.42
2017-11-26T00:10:07.597Z,97.17
2017-11-26T00:12:35.139Z,96.80
2017-11-26T00:15:02.713Z,97.37
2017-11-26T00:17:30.253Z,97.62
2017-11-26T00:19:57.828Z,98.16
2017-11-26T00:22:25.367Z,98.30
2017-11-26T00:24:52.942Z,98.45
2017-11-26T00:27:20.464Z,98.29
2017-11-26T00:29:47.992Z,98.25
2017-11-26T00:32:15.549Z,98.32
2017-11-26T00:34:43.065Z,97.85
2017-11-26T00:37:10.589Z,98.08
2017-11-26T00:39:38.125Z,98.22
2017-11-26T00:42:05.698Z,98.00
2017-11-26T00:44:33.227Z,98.67
2017-11-26T00:47:00.757Z,98.44
2017-11-26T00:49:28.342Z,98.18
2017-11-26T00:51:55.871Z,98.83
2017-11-26T00:54:23.389Z,99.15
2017-11-26T00:56:50.963Z,98.72
2017-11-26T00:59:18.491Z,99.01
2017-11-26T01:01:46.019Z,99.42
2017-11-26T01:04:13.586Z,98.60
2017-11-26T01:06:41.114Z,98.60
2017-11-26T01:09:08.631Z,98.78
2017-11-26T01:11:36.294Z,98.40
2017-11-26T01:14:03.843Z,98.39
2017-11-26T01:16:31.367Z,98.73
2017-11-26T01:18:58.910Z,99.44
2017-11-26T01:21:26.455Z,99.16
2017-11-26T01:23:54.059Z,99.45
2017-11-26T01:26:21.588Z,99.15
2017-11-26T01:28:49.107Z,99.08
2017-11-26T01:31:16.666Z,99.56
2017-11-26T01:33:44.197Z,99.85
2017-11-26T01:36:11.769Z,99.72
2017-11-26T01:38:39.339Z,99.15
2017-11-26T01:41:06.868Z,98.78
2017-11-26T01:43:34.423Z,98.41
2017-11-26T01:46:01.946Z,98.87
2017-11-26T01:48:29.726Z,98.36
2017-11-26T01:50:57.241Z,98.80
2017-11-26T01:53:24.769Z,99.01
2017-11-26T01:55:52.366Z,99.18
2017-11-26T01:58:19.960Z,99.49
2017-11-26T02:00:50.316Z,99.11
2017-11-26T02:03:17.900Z,98.67
2017-11-26T02:05:45.479Z,98.92
2017-11-26T02:08:13.019Z,98.37
2017-11-26T02:10:40.575Z,99.61
2017-11-26T02:13:08.108Z,99.24
2017-11-26T02:15:35.664Z,99.25
2017-11-26T02:18:03.224Z,99.78
2017-11-26T02:20:30.806Z,100.00
2017-11-26T02:22:59.352Z,99.34
2017-11-26T02:25:27.122Z,99.78
2017-11-26T02:27:54.685Z,99.75
2017-11-26T02:30:22.218Z,99.41
2017-11-26T02:33:01.650Z,99.24
2017-11-26T02:35:39.028Z,99.32
2017-11-26T02:38:06.614Z,99.69
2017-11-26T02:40:34.154Z,99.96
2017-11-26T02:43:01.752Z,100.00
2017-11-26T02:45:29.310Z,100.00
2017-11-26T02:47:56.851Z,99.78
2017-11-26T02:50:24.459Z,99.57
2017-11-26T02:52:52.064Z,99.70
2017-11-26T02:55:19.593Z,99.06
2017-11-26T02:57:47.184Z,99.19
2017-11-26T03:00:14.779Z,99.44
2017-11-26T03:02:42.300Z,99.51
2017-11-26T03:05:09.834Z,99.69
2017-11-26T03:07:37.403Z,99.44
2017-11-26T03:10:04.963Z,99.40
2017-11-26T03:12:32.549Z,99.78
2017-11-26T03:15:00.100Z,99.92
2017-11-26T03:17:27.648Z,99.69
2017-11-26T03:19:55.204Z,99.88
2017-11-26T03:22:22.733Z,100.00
2017-11-26T03:24:50.479Z,100.00
2017-11-26T03:27:18.021Z,99.79
2017-11-26T03:29:45.608Z,100.00
2017-11-26T03:32:13.323Z,99.95
2017-11-26T03:34:40.853Z,99.72
2017-11-26T03:37:08.409Z,99.60
2017-11-26T03:39:36.018Z,99.57
2017-11-26T03:42:03.547Z,99.86
2017-11-26T03:44:31.106Z,99.79
2017-11-26T03:46:58.782Z,99.83
2017-11-26T03:49:26.328Z,99.89
2017-11-26T03:51:53.888Z,99.86
2017-11-26T03:54:21.443Z,99.41
2017-11-26T03:56:48.974Z,99.43
2017-11-26T03:59:16.712Z,99.97
2017-11-26T04:01:44.243Z,99.85
2017-11-26T04:04:11.771Z,99.74
2017-11-26T04:06:39.519Z,99.70
2017-11-26T04:09:07.065Z,99.36
2017-11-26T04:11:34.621Z,99.76
2017-11-26T04:14:02.185Z,99.86
2017-11-26T04:16:29.928Z,99.78
2017-11-26T04:18:57.448Z,99.64
2017-11-26T04:21:25.000Z,99.63
2017-11-26T04:23:52.546Z,99.78
2017-11-26T04:26:20.112Z,99.67
2017-11-26T04:28:47.700Z,99.34
2017-11-26T04:31:15.221Z,99.77
2017-11-26T04:33:42.765Z,99.45
2017-11-26T04:36:10.361Z,99.71
2017-11-26T04:38:37.897Z,99.35
2017-11-26T04:41:05.439Z,99.58
2017-11-26T04:43:33.027Z,99.59
2017-11-26T04:46:00.575Z,99.30
2017-11-26T04:48:28.127Z,99.16
2017-11-26T04:50:55.839Z,99.23
2017-11-26T04:53:23.393Z,98.94
2017-11-26T04:55:51.019Z,99.11
2017-11-26T04:58:18.580Z,98.96
2017-11-26T05:00:46.244Z,98.89
2017-11-26T05:03:13.806Z,99.00
2017-11-26T05:05:41.582Z,98.94
2017-11-26T05:08:09.263Z,99.09
2017-11-26T05:10:36.781Z,98.98
2017-11-26T05:13:04.502Z,98.77
2017-11-26T05:15:32.033Z,98.94
2017-11-26T05:17:59.572Z,98.97
2017-11-26T05:20:27.246Z,99.15
2017-11-26T05:22:54.786Z,99.18
2017-11-26T05:25:22.422Z,99.30
2017-11-26T05:27:49.993Z,99.00
2017-11-26T05:30:17.508Z,99.04
2017-11-26T05:32:45.046Z,98.88
2017-11-26T05:35:12.625Z,99.02
2017-11-26T05:37:40.158Z,98.77
2017-11-26T05:40:07.685Z,98.23
2017-11-26T05:42:35.265Z,98.35
2017-11-26T05:45:02.831Z,98.50
2017-11-26T05:47:30.365Z,98.89
2017-11-26T05:49:57.945Z,98.93
2017-11-26T05:52:25.469Z,99.01
2017-11-26T05:54:53.014Z,99.18
2017-11-26T05:57:20.570Z,99.23
2017-11-26T05:59:48.274Z,98.86
2017-11-26T06:02:15.807Z,98.73
2017-11-26T06:04:43.346Z,98.97
2017-11-26T06:07:10.911Z,98.80
2017-11-26T06:09:38.444Z,98.81
2017-11-26T06:12:06.152Z,99.03
2017-11-26T06:14:33.675Z,98.64
2017-11-26T06:17:01.189Z,98.21
2017-11-26T06:19:28.729Z,98.07
2017-11-26T06:21:56.250Z,97.98
2017-11-26T06:24:23.915Z,97.83
2017-11-26T06:26:51.446Z,98.37
2017-11-26T06:29:18.973Z,98.35
2017-11-26T06:31:46.633Z,98.43
2017-11-26T06:34:14.161Z,98.48
2017-11-26T06:36:41.690Z,97.49
2017-11-26T06:39:09.246Z,97.82
2017-11-26T06:41:36.789Z,97.68
2017-11-26T06:44:04.352Z,98.11
2017-11-26T06:46:31.899Z,98.04
2017-11-26T06:48:59.465Z,98.00
2017-11-26T06:51:27.006Z,98.51
2017-11-26T06:53:54.526Z,98.61
2017-11-26T06:56:22.183Z,98.53
2017-11-26T06:58:49.712Z,98.47
2017-11-26T07:01:17.233Z,98.17
2017-11-26T07:03:44.960Z,97.59
2017-11-26T07:06:12.469Z,97.63
2017-11-26T07:08:39.992Z,97.87
2017-11-26T07:11:07.583Z,98.64
2017-11-26T07:13:35.126Z,98.66
2017-11-26T07:16:02.645Z,98.24
2017-11-26T07:18:30.217Z,97.81
2017-11-26T07:20:57.779Z,98.12
2017-11-26T07:23:25.307Z,98.13
2017-11-26T07:25:52.882Z,97.73
2017-11-26T07:28:20.408Z,97.85
2017-11-26T07:30:47.954Z,97.47
2017-11-26T07:33:15.522Z,97.94
2017-11-26T07:35:43.040Z,98.35
2017-11-26T07:38:10.565Z,98.20
2017-11-26T07:40:38.100Z,98.52
2017-11-26T07:43:05.671Z,98.60
2017-11-26T07:45:33.292Z,98.55
2017-11-26T07:48:00.814Z,98.90
2017-11-26T07:50:28.396Z,98.00
2017-11-26T07:52:55.929Z,97.70
2017-11-26T07:55:23.453Z,98.23
2017-11-26T07:57:51.131Z,99.08
2017-11-26T08:00:18.669Z,99.03
2017-11-26T08:02:46.207Z,98.80
2017-11-26T08:05:13.776Z,99.16
2017-11-26T08:07:41.331Z,98.81
2017-11-26T08:10:08.859Z,99.27
2017-11-26T08:12:36.606Z,99.00
2017-11-26T08:15:04.136Z,99.21
2017-11-26T08:17:31.660Z,99.38
2017-11-26T08:19:59.214Z,99.06
2017-11-26T08:22:26.768Z,97.89
2017-11-26T08:24:54.314Z,98.48
2017-11-26T08:27:21.833Z,98.19
2017-11-26T08:29:49.501Z,98.24
2017-11-26T08:32:17.035Z,98.71
2017-11-26T08:34:44.541Z,98.66
2017-11-26T08:37:12.073Z,98.75
2017-11-26T08:39:39.595Z,98.91
2017-11-26T08:42:07.160Z,98.59
2017-11-26T08:44:34.701Z,98.06
2017-11-26T08:47:02.272Z,98.40
2017-11-26T08:49:29.811Z,97.89
2017-11-26T08:51:57.389Z,97.13
2017-11-26T08:54:24.928Z,96.26
2017-11-26T08:56:52.472Z,96.17
2017-11-26T08:59:20.017Z,95.77
2017-11-26T09:01:47.563Z,95.44
2017-11-26T09:04:15.159Z,95.58
2017-11-26T09:06:44.523Z,97.27
2017-11-26T09:09:12.068Z,97.09
2017-11-26T09:11:39.675Z,97.00
2017-11-26T09:14:07.248Z,96.07
2017-11-26T09:16:34.771Z,96.26
2017-11-26T09:19:02.358Z,95.99
2017-11-26T09:21:29.881Z,96.92
2017-11-26T09:23:57.394Z,96.23
2017-11-26T09:26:25.123Z,96.57
2017-11-26T09:28:52.638Z,96.57
2017-11-26T09:31:20.158Z,96.77
2017-11-26T09:33:47.699Z,96.81
2017-11-26T09:36:15.382Z,95.82
2017-11-26T09:38:42.947Z,96.24
2017-11-26T09:41:10.495Z,96.58
2017-11-26T09:43:38.014Z,95.82
2017-11-26T09:46:05.702Z,95.48
2017-11-26T09:48:33.217Z,94.94
2017-11-26T09:51:00.738Z,93.97
2017-11-26T09:53:28.286Z,94.64
2017-11-26T09:55:55.835Z,96.40
2017-11-26T09:58:23.592Z,95.26
2017-11-26T10:00:51.120Z,95.63
2017-11-26T10:03:18.636Z,94.94
2017-11-26T10:05:46.210Z,93.68
2017-11-26T10:08:13.735Z,94.19
2017-11-26T10:10:41.253Z,95.24
2017-11-26T10:13:08.804Z,95.87
2017-11-26T10:15:36.320Z,95.99
2017-11-26T10:18:03.894Z,96.78
2017-11-26T10:20:31.428Z,96.19
2017-11-26T10:22:58.960Z,94.55
2017-11-26T10:25:26.490Z,94.81
2017-11-26T10:27:54.056Z,93.86
2017-11-26T10:30:21.570Z,93.28
2017-11-26T10:32:49.088Z,93.11
2017-11-26T10:35:16.627Z,92.15
2017-11-26T10:37:44.216Z,93.08
2017-11-26T10:40:11.717Z,92.93
2017-11-26T10:42:39.255Z,91.97
2017-11-26T10:45:06.802Z,92.11
2017-11-26T10:47:34.387Z,94.05
2017-11-26T10:50:01.938Z,92.03
2017-11-26T10:52:29.483Z,94.08
2017-11-26T10:54:57.073Z,92.43
2017-11-26T10:57:24.605Z,93.22
2017-11-26T10:59:52.158Z,93.21
2017-11-26T11:02:19.755Z,94.31
2017-11-26T11:04:47.302Z,94.65
2017-11-26T11:07:14.842Z,93.49
2017-11-26T11:09:42.435Z,93.90
2017-11-26T11:12:09.945Z,91.61
2017-11-26T11:14:37.474Z,93.23
2017-11-26T11:17:05.077Z,92.96
2017-11-26T11:19:32.625Z,92.50
2017-11-26T11:22:00.171Z,93.36
2017-11-26T11:24:27.911Z,92.00
2017-11-26T11:26:55.443Z,92.23
2017-11-26T11:29:22.968Z,92.50
2017-11-26T11:31:50.513Z,92.67
2017-11-26T11:34:18.087Z,93.52
2017-11-26T11:36:45.718Z,93.05
2017-11-26T11:39:13.447Z,93.34
2017-11-26T11:41:40.949Z,93.22
2017-11-26T11:44:08.448Z,93.49
2017-11-26T11:46:36.010Z,91.25
2017-11-26T11:49:03.525Z,92.15
2017-11-26T11:51:31.060Z,92.60
2017-11-26T11:53:59.614Z,92.19
2017-11-26T11:56:27.146Z,91.61
2017-11-26T11:58:54.703Z,90.61
2017-11-26T12:01:22.238Z,89.77
2017-11-26T12:03:49.849Z,91.43
2017-11-26T12:06:17.359Z,90.63
2017-11-26T12:08:44.894Z,90.46
2017-11-26T12:11:12.564Z,91.50
2017-11-26T12:13:40.089Z,91.41
2017-11-26T12:16:07.623Z,90.13
2017-11-26T12:18:35.226Z,90.77
2017-11-26T12:21:02.753Z,90.58
2017-11-26T12:23:30.276Z,89.48
2017-11-26T12:25:57.856Z,91.66
2017-11-26T12:28:25.386Z,91.72
2017-11-26T12:30:52.921Z,89.84
2017-11-26T12:33:20.658Z,91.53
2017-11-26T12:35:48.208Z,92.12
2017-11-26T12:38:15.781Z,91.76
2017-11-26T12:40:43.488Z,92.03
2017-11-26T12:43:11.030Z,91.97
2017-11-26T12:45:38.579Z,91.55
2017-11-26T12:48:06.314Z,90.94
2017-11-26T12:50:33.842Z,90.92
2017-11-26T12:53:01.394Z,92.06
2017-11-26T12:55:28.973Z,91.77
2017-11-26T12:57:56.518Z,92.52
2017-11-26T13:00:24.180Z,92.79
2017-11-26T13:02:51.691Z,93.21
2017-11-26T13:05:19.230Z,92.89
2017-11-26T13:07:48.337Z,93.49
2017-11-26T13:10:15.929Z,93.76
2017-11-26T13:12:43.510Z,94.19
2017-11-26T13:15:11.062Z,93.66
2017-11-26T13:17:38.615Z,94.33
2017-11-26T13:20:06.192Z,93.76
2017-11-26T13:22:33.781Z,93.30
2017-11-26T13:25:01.308Z,92.89
2017-11-26T13:27:29.002Z,91.83
2017-11-26T13:29:56.598Z,92.54
2017-11-26T13:32:24.131Z,92.73
2017-11-26T13:34:51.811Z,92.72
2017-11-26T13:37:19.628Z,92.16
2017-11-26T13:39:47.174Z,92.04
2017-11-26T13:42:14.718Z,92.58
2017-11-26T13:44:42.413Z,92.43
2017-11-26T13:47:10.028Z,92.56
2017-11-26T13:49:37.614Z,92.80
2017-11-26T13:52:05.258Z,92.61
2017-11-26T13:54:32.786Z,93.41
2017-11-26T13:57:00.323Z,93.10
2017-11-26T13:59:27.894Z,92.55
2017-11-26T14:01:55.500Z,93.00
2017-11-26T14:04:23.095Z,93.35
2017-11-26T14:06:50.670Z,93.28
2017-11-26T14:09:18.215Z,92.69
2017-11-26T14:11:45.787Z,92.86
2017-11-26T14:14:13.326Z,93.28
2017-11-26T14:16:41.082Z,92.44
2017-11-26T14:19:08.601Z,93.35
2017-11-26T14:21:36.142Z,92.46
2017-11-26T14:24:03.914Z,94.56
2017-11-26T14:26:31.457Z,94.13
2017-11-26T14:28:58.988Z,94.32
2017-11-26T14:31:26.593Z,93.50
2017-11-26T14:33:54.121Z,93.52
2017-11-26T14:36:21.649Z,93.83
2017-11-26T14:38:49.225Z,93.60
2017-11-26T14:41:16.757Z,94.05
2017-11-26T14:43:45.505Z,93.43
2017-11-26T14:46:13.046Z,93.76
2017-11-26T14:48:40.590Z,94.31
2017-11-26T14:51:08.338Z,93.67
2017-11-26T14:53:35.878Z,94.83
2017-11-26T14:56:03.418Z,95.23
2017-11-26T14:58:30.970Z,95.40
2017-11-26T15:00:58.558Z,95.38
2017-11-26T15:03:26.114Z,95.78
2017-11-26T15:05:53.694Z,95.43
2017-11-26T15:08:21.224Z,95.02
2017-11-26T15:10:48.766Z,95.09
2017-11-26T15:13:16.398Z,95.11
2017-11-26T15:15:43.938Z,95.16
2017-11-26T15:18:11.461Z,95.58
2017-11-26T15:20:39.000Z,96.37
2017-11-26T15:23:06.585Z,96.39
2017-11-26T15:25:34.247Z,96.02
2017-11-26T15:28:01.809Z,95.97
2017-11-26T15:30:29.358Z,96.58
2017-11-26T15:32:56.919Z,97.07
2017-11-26T15:35:24.450Z,97.24
2017-11-26T15:37:52.011Z,97.06
2017-11-26T15:40:19.569Z,96.96
2017-11-26T15:42:47.362Z,96.98
2017-11-26T15:45:14.892Z,96.87
2017-11-26T15:47:42.431Z,96.07
2017-11-26T15:50:10.072Z,95.92
2017-11-26T15:52:37.608Z,95.91
2017-11-26T15:55:05.152Z,96.03
2017-11-26T15:57:32.705Z,95.87
2017-11-26T16:00:00.253Z,95.84
2017-11-26T16:02:27.833Z,95.95
2017-11-26T16:04:55.371Z,96.26
2017-11-26T16:07:22.974Z,95.01
2017-11-26T16:09:50.513Z,94.40
2017-11-26T16:12:18.110Z,96.32
2017-11-26T16:14:45.655Z,94.97
2017-11-26T16:17:13.213Z,97.36
2017-11-26T16:19:40.892Z,96.38
2017-11-26T16:22:08.443Z,96.01
2017-11-26T16:24:35.974Z,97.73
2017-11-26T16:27:03.556Z,97.36
2017-11-26T16:29:31.112Z,96.97
2017-11-26T16:31:58.674Z,96.80
2017-11-26T16:34:26.493Z,97.77
2017-11-26T16:36:54.042Z,97.58
2017-11-26T16:39:21.569Z,97.55
2017-11-26T16:41:49.140Z,97.25
2017-11-26T16:44:16.746Z,97.48
2017-11-26T16:46:44.460Z,97.74
2017-11-26T16:49:12.016Z,97.54
2017-11-26T16:51:39.637Z,97.62
2017-11-26T16:54:07.208Z,97.51
2017-11-26T16:56:34.771Z,97.80
2017-11-26T16:59:02.382Z,97.92
2017-11-26T17:01:29.971Z,97.97
2017-11-26T17:03:57.533Z,98.01
2017-11-26T17:06:25.133Z,98.17
2017-11-26T17:08:52.679Z,98.45
2017-11-26T17:11:20.213Z,98.74
2017-11-26T17:13:47.974Z,98.73
2017-11-26T17:16:15.517Z,98.46
2017-11-26T17:18:43.084Z,98.28
2017-11-26T17:21:10.653Z,98.72
2017-11-26T17:23:38.272Z,98.25
2017-11-26T17:26:05.843Z,97.20
2017-11-26T17:28:33.402Z,95.82
2017-11-26T17:31:01.099Z,95.90
2017-11-26T17:33:28.667Z,95.96
2017-11-26T17:35:56.227Z,97.05
2017-11-26T17:38:23.890Z,97.01
2017-11-26T17:40:51.429Z,97.11
2017-11-26T17:43:18.971Z,96.91
2017-11-26T17:45:46.546Z,96.80
2017-11-26T17:48:14.089Z,97.21
2017-11-26T17:50:41.657Z,97.24
2017-11-26T17:53:10.158Z,97.52
2017-11-26T17:55:37.703Z,97.71
2017-11-26T17:58:05.240Z,97.59
2017-11-26T18:00:32.862Z,97.61
2017-11-26T18:03:00.407Z,97.63
2017-11-26T18:05:27.987Z,97.64
2017-11-26T18:07:55.546Z,97.19
2017-11-26T18:10:23.058Z,97.42
2017-11-26T18:12:50.655Z,97.52
2017-11-26T18:15:18.260Z,97.85
2017-11-26T18:17:45.807Z,97.81
2017-11-26T18:20:13.583Z,97.67
2017-11-26T18:22:41.119Z,97.66
2017-11-26T18:25:08.637Z,97.61
2017-11-26T18:27:36.201Z,97.83
2017-11-26T18:30:03.763Z,97.77
2017-11-26T18:32:31.282Z,97.89
2017-11-26T18:34:59.047Z,98.05
2017-11-26T18:37:26.577Z,98.29
2017-11-26T18:39:54.103Z,98.47
2017-11-26T18:42:21.674Z,98.35
2017-11-26T18:44:49.190Z,98.35
2017-11-26T18:47:16.758Z,98.44
2017-11-26T18:49:44.289Z,98.43
2017-11-26T18:52:11.810Z,98.16
2017-11-26T18:54:39.357Z,98.50
2017-11-26T18:57:06.878Z,98.20
2017-11-26T18:59:34.421Z,98.08
2017-11-26T19:02:02.001Z,98.01
2017-11-26T19:04:29.575Z,97.69
2017-11-26T19:06:57.090Z,97.87
2017-11-26T19:09:24.619Z,97.74
2017-11-26T19:11:52.416Z,97.51
2017-11-26T19:14:19.967Z,97.62
2017-11-26T19:16:47.492Z,97.44
2017-11-26T19:19:15.227Z,98.03
2017-11-26T19:21:42.741Z,97.78
2017-11-26T19:24:10.350Z,97.94
2017-11-26T19:26:37.929Z,97.90
2017-11-26T19:29:05.441Z,98.43
2017-11-26T19:31:32.970Z,98.56
2017-11-26T19:34:00.525Z,98.51
2017-11-26T19:36:28.071Z,98.56
2017-11-26T19:38:55.651Z,98.69
2017-11-26T19:41:23.253Z,98.80
2017-11-26T19:43:50.800Z,98.69
2017-11-26T19:46:18.373Z,98.78
2017-11-26T19:48:45.918Z,98.88
2017-11-26T19:51:13.459Z,98.85
2017-11-26T19:53:41.048Z,99.11
2017-11-26T19:56:08.591Z,99.00
2017-11-26T19:58:36.127Z,98.93
2017-11-26T20:01:03.709Z,98.49
2017-11-26T20:03:31.249Z,98.43
2017-11-26T20:05:58.758Z,98.48
2017-11-26T20:08:26.352Z,98.79
2017-11-26T20:10:53.904Z,98.83
2017-11-26T20:13:21.417Z,98.73
2017-11-26T20:15:49.075Z,99.07
2017-11-26T20:18:16.606Z,99.00
2017-11-26T20:20:44.139Z,98.81
2017-11-26T20:23:12.654Z,98.53
2017-11-26T20:25:40.160Z,98.34
2017-11-26T20:28:07.786Z,98.15
2017-11-26T20:30:35.463Z,97.96
2017-11-26T20:33:02.976Z,97.59
2017-11-26T20:35:30.494Z,97.64
2017-11-26T20:37:58.066Z,97.63
2017-11-26T20:40:25.671Z,97.93
2017-11-26T20:42:53.200Z,97.51
2017-11-26T20:45:20.728Z,97.37
2017-11-26T20:47:48.279Z,97.97
2017-11-26T20:50:15.822Z,97.68
2017-11-26T20:52:43.391Z,97.76
2017-11-26T20:55:10.914Z,97.75
2017-11-26T20:57:38.433Z,97.70
2017-11-26T21:00:06.124Z,97.65
2017-11-26T21:02:33.650Z,97.35
2017-11-26T21:05:01.202Z,97.55
2017-11-26T21:07:28.732Z,97.64
2017-11-26T21:09:56.282Z,97.70
2017-11-26T21:12:23.815Z,97.52
2017-11-26T21:14:51.355Z,97.82
2017-11-26T21:17:18.919Z,97.84
2017-11-26T21:19:46.602Z,97.70
2017-11-26T21:22:14.132Z,97.88
2017-11-26T21:24:41.670Z,97.93
2017-11-26T21:27:09.434Z,97.76
2017-11-26T21:29:36.978Z,98.45
2017-11-26T21:32:04.498Z,97.98
2017-11-26T21:34:32.246Z,97.88
2017-11-26T21:36:59.847Z,98.03
2017-11-26T21:39:27.391Z,97.70
2017-11-26T21:41:55.048Z,97.74
2017-11-26T21:44:22.561Z,97.54
2017-11-26T21:46:50.087Z,97.46
2017-11-26T21:49:17.819Z,98.03
2017-11-26T21:51:45.541Z,97.67
2017-11-26T21:54:13.070Z,97.54
2017-11-26T21:56:40.674Z,97.25
2017-11-26T21:59:08.194Z,97.68
2017-11-26T22:01:35.718Z,98.04
2017-11-26T22:04:03.444Z,98.13
2017-11-26T22:06:30.974Z,98.61
2017-11-26T22:08:58.497Z,98.18
2017-11-26T22:11:26.255Z,98.25
2017-11-26T22:13:53.770Z,98.17
2017-11-26T22:16:21.287Z,98.54
2017-11-26T22:18:48.861Z,98.56
2017-11-26T22:21:16.440Z,98.68
2017-11-26T22:23:43.961Z,98.33
2017-11-26T22:26:11.495Z,98.46
2017-11-26T22:28:39.175Z,98.39
2017-11-26T22:31:06.787Z,98.70
2017-11-26T22:33:34.315Z,98.53
2017-11-26T22:36:01.839Z,98.37
2017-11-26T22:38:29.377Z,97.75
2017-11-26T22:40:56.902Z,98.27
2017-11-26T22:43:25.033Z,98.19
2017-11-26T22:45:52.603Z,98.18
2017-11-26T22:48:20.141Z,98.59
2017-11-26T22:50:47.745Z,98.61
2017-11-26T22:53:15.291Z,98.64
2017-11-26T22:55:42.857Z,98.40
2017-11-26T22:58:10.568Z,98.48
2017-11-26T23:00:38.159Z,98.20
2017-11-26T23:03:05.686Z,97.76
2017-11-26T23:05:33.254Z,97.32
2017-11-26T23:08:00.832Z,97.36
2017-11-26T23:10:28.348Z,97.21
2017-11-26T23:12:55.917Z,97.18
2017-11-26T23:15:23.481Z,97.08
2017-11-26T23:17:51.005Z,96.54
2017-11-26T23:20:18.534Z,97.31
2017-11-26T23:22:46.095Z,97.11
2017-11-26T23:25:13.619Z,96.96
2017-11-26T23:27:41.196Z,96.67
2017-11-26T23:30:08.803Z,96.58
2017-11-26T23:32:36.386Z,95.87
2017-11-26T23:35:04.147Z,96.47
2017-11-26T23:37:31.698Z,97.05
2017-11-26T23:39:59.238Z,97.06
2017-11-26T23:42:26.979Z,97.11
2017-11-26T23:44:54.511Z,96.43
2017-11-26T23:47:22.066Z,96.21
2017-11-26T23:49:49.785Z,96.60
2017-11-26T23:52:17.419Z,96.60
2017-11-26T23:54:44.946Z,96.69
2017-11-26T23:57:12.497Z,96.96
2017-11-26T23:59:40.017Z,96.97
